LGAD

Details ICAO LGAD (PYR)
Name ANDRAVIDA
Region Greece
Timezone Europe/Athens (UTC+2.0)
Plans Departing 13
Arriving 7
Stats Elevation 55 ft / 17 m (AMSL)
Location 37.920708° 21.292583°
Runways 1
Magnetic Variation 4.142° E
Sunrise 2017-12-16 05:45:27 UTC / 2017-12-16 07:45:27 Local
Sunset 2017-12-16 15:18:11 UTC / 2017-12-16 17:18:11 Local
Advertisement - Login to hide

Runways

ID Width Length Bearing (true) Bearing (mag) Surface Threshold Offset Overrun Length
16 148 ft / 45 m 10,313 ft / 3,143 m 164.62° 160.48° Asphalt 0 ft / 0 m 75 ft / 23 m
34 148 ft / 45 m 10,313 ft / 3,143 m 344.63° 340.49° Asphalt 0 ft / 0 m 75 ft / 23 m

Map

Weather


0- 5 10 15 20 25 30 35+ Temperature / ° C

Clouds and Precipitation
Forecast for 2017-12-16 18:00 UTC. Updated 2 hours ago

Ground ~20,000 ft ~40,000 ft Winds

METAR

LGAD 161450Z 16008KT 8000 -RA SCT012 SCT020 OVC080 14/11 Q1009

TAF

Not found

Frequencies

Tower 122.10 MHz TWR
Approach 120.65 MHz APP
Tower 120.65 MHz TWR
Approach 122.10 MHz APP
Warning: Do not use this data for real-world aviation or navigation. No guarantee of current accuracy is given.